sensor_id;sensor_type;location;lat;lon;timestamp;temperature;humidity
73137;DHT22;67767;45.636;11.756;2023-08-17T00:00:10;27.50;72.30
73137;DHT22;67767;45.636;11.756;2023-08-17T00:02:39;27.50;72.20
73137;DHT22;67767;45.636;11.756;2023-08-17T00:05:05;27.50;72.40
73137;DHT22;67767;45.636;11.756;2023-08-17T00:07:34;27.40;72.60
73137;DHT22;67767;45.636;11.756;2023-08-17T00:10:00;27.20;72.60
73137;DHT22;67767;45.636;11.756;2023-08-17T00:12:26;27.20;72.60
73137;DHT22;67767;45.636;11.756;2023-08-17T00:14:52;27.20;72.70
73137;DHT22;67767;45.636;11.756;2023-08-17T00:17:18;27.30;72.80
73137;DHT22;67767;45.636;11.756;2023-08-17T00:19:44;27.10;73.30
73137;DHT22;67767;45.636;11.756;2023-08-17T00:22:09;27.00;73.70
73137;DHT22;67767;45.636;11.756;2023-08-17T00:24:35;26.80;74.00
73137;DHT22;67767;45.636;11.756;2023-08-17T00:27:01;26.70;74.20
73137;DHT22;67767;45.636;11.756;2023-08-17T00:29:26;26.80;74.10
73137;DHT22;67767;45.636;11.756;2023-08-17T00:31:52;27.00;73.70
73137;DHT22;67767;45.636;11.756;2023-08-17T00:34:18;26.80;74.30
73137;DHT22;67767;45.636;11.756;2023-08-17T00:36:44;26.90;74.00
73137;DHT22;67767;45.636;11.756;2023-08-17T00:39:10;27.00;73.70
73137;DHT22;67767;45.636;11.756;2023-08-17T00:41:35;26.90;74.00
73137;DHT22;67767;45.636;11.756;2023-08-17T00:44:01;26.90;74.20
73137;DHT22;67767;45.636;11.756;2023-08-17T00:46:27;26.80;74.20
73137;DHT22;67767;45.636;11.756;2023-08-17T00:48:55;26.70;74.20
73137;DHT22;67767;45.636;11.756;2023-08-17T00:51:24;26.50;74.40
73137;DHT22;67767;45.636;11.756;2023-08-17T00:53:51;26.60;74.40
73137;DHT22;67767;45.636;11.756;2023-08-17T00:56:17;26.70;74.20
73137;DHT22;67767;45.636;11.756;2023-08-17T00:58:43;26.70;73.90
73137;DHT22;67767;45.636;11.756;2023-08-17T01:01:09;26.70;73.70
73137;DHT22;67767;45.636;11.756;2023-08-17T01:03:34;26.80;73.60
73137;DHT22;67767;45.636;11.756;2023-08-17T01:06:02;26.80;73.70
73137;DHT22;67767;45.636;11.756;2023-08-17T01:08:29;26.70;73.90
73137;DHT22;67767;45.636;11.756;2023-08-17T01:14:02;26.60;74.20
73137;DHT22;67767;45.636;11.756;2023-08-17T01:16:56;26.60;74.10
73137;DHT22;67767;45.636;11.756;2023-08-17T01:19:27;26.40;74.10
73137;DHT22;67767;45.636;11.756;2023-08-17T01:22:00;26.30;74.10
73137;DHT22;67767;45.636;11.756;2023-08-17T01:24:26;26.30;74.10
73137;DHT22;67767;45.636;11.756;2023-08-17T01:26:52;26.50;73.80
73137;DHT22;67767;45.636;11.756;2023-08-17T01:29:18;26.50;73.70
73137;DHT22;67767;45.636;11.756;2023-08-17T01:32:07;26.50;73.70
73137;DHT22;67767;45.636;11.756;2023-08-17T01:34:39;26.70;74.00
73137;DHT22;67767;45.636;11.756;2023-08-17T01:37:07;26.60;74.00
73137;DHT22;67767;45.636;11.756;2023-08-17T01:39:39;26.60;74.10
73137;DHT22;67767;45.636;11.756;2023-08-17T01:42:05;26.70;74.00
73137;DHT22;67767;45.636;11.756;2023-08-17T01:44:32;26.70;74.00
73137;DHT22;67767;45.636;11.756;2023-08-17T01:46:58;26.80;73.90
73137;DHT22;67767;45.636;11.756;2023-08-17T01:49:24;26.80;73.60
73137;DHT22;67767;45.636;11.756;2023-08-17T01:51:49;26.70;73.60
73137;DHT22;67767;45.636;11.756;2023-08-17T01:54:15;26.70;73.70
73137;DHT22;67767;45.636;11.756;2023-08-17T01:56:41;26.60;74.30
73137;DHT22;67767;45.636;11.756;2023-08-17T01:59:06;26.50;74.20
73137;DHT22;67767;45.636;11.756;2023-08-17T02:01:32;26.60;74.20
73137;DHT22;67767;45.636;11.756;2023-08-17T02:03:57;26.60;74.30
73137;DHT22;67767;45.636;11.756;2023-08-17T02:06:26;26.50;74.10
73137;DHT22;67767;45.636;11.756;2023-08-17T02:08:52;26.50;74.50
73137;DHT22;67767;45.636;11.756;2023-08-17T02:11:18;26.50;74.50
73137;DHT22;67767;45.636;11.756;2023-08-17T02:13:43;26.70;74.10
73137;DHT22;67767;45.636;11.756;2023-08-17T02:16:09;26.60;74.30
73137;DHT22;67767;45.636;11.756;2023-08-17T02:18:34;26.50;74.60
73137;DHT22;67767;45.636;11.756;2023-08-17T02:21:00;26.40;74.60
73137;DHT22;67767;45.636;11.756;2023-08-17T02:23:26;26.30;75.00
73137;DHT22;67767;45.636;11.756;2023-08-17T02:25:52;26.20;75.20
73137;DHT22;67767;45.636;11.756;2023-08-17T02:28:17;26.20;75.00
73137;DHT22;67767;45.636;11.756;2023-08-17T02:30:43;26.10;75.30
73137;DHT22;67767;45.636;11.756;2023-08-17T02:33:09;26.10;75.20
73137;DHT22;67767;45.636;11.756;2023-08-17T02:35:34;26.10;75.20
73137;DHT22;67767;45.636;11.756;2023-08-17T02:38:00;26.00;75.30
73137;DHT22;67767;45.636;11.756;2023-08-17T02:40:26;25.90;75.00
73137;DHT22;67767;45.636;11.756;2023-08-17T02:42:51;26.00;75.30
73137;DHT22;67767;45.636;11.756;2023-08-17T02:45:17;26.00;75.10
73137;DHT22;67767;45.636;11.756;2023-08-17T02:47:43;26.00;75.40
73137;DHT22;67767;45.636;11.756;2023-08-17T02:50:09;26.00;75.10
73137;DHT22;67767;45.636;11.756;2023-08-17T02:52:35;25.90;75.20
73137;DHT22;67767;45.636;11.756;2023-08-17T02:55:00;25.90;75.20
73137;DHT22;67767;45.636;11.756;2023-08-17T02:57:26;25.80;75.30
73137;DHT22;67767;45.636;11.756;2023-08-17T02:59:52;25.80;75.30
73137;DHT22;67767;45.636;11.756;2023-08-17T03:02:17;25.80;75.30
73137;DHT22;67767;45.636;11.756;2023-08-17T03:04:43;25.90;75.10
73137;DHT22;67767;45.636;11.756;2023-08-17T03:07:09;25.80;75.00
73137;DHT22;67767;45.636;11.756;2023-08-17T03:09:34;25.70;75.40
73137;DHT22;67767;45.636;11.756;2023-08-17T03:12:00;25.80;75.40
73137;DHT22;67767;45.636;11.756;2023-08-17T03:14:25;25.80;75.30
73137;DHT22;67767;45.636;11.756;2023-08-17T03:16:51;25.70;75.30
73137;DHT22;67767;45.636;11.756;2023-08-17T03:19:17;25.70;75.30
73137;DHT22;67767;45.636;11.756;2023-08-17T03:21:43;25.70;74.90
73137;DHT22;67767;45.636;11.756;2023-08-17T03:24:08;25.90;75.10
73137;DHT22;67767;45.636;11.756;2023-08-17T03:26:34;25.90;75.20
73137;DHT22;67767;45.636;11.756;2023-08-17T03:28:59;25.70;75.20
73137;DHT22;67767;45.636;11.756;2023-08-17T03:31:25;25.70;75.10
73137;DHT22;67767;45.636;11.756;2023-08-17T03:33:51;25.70;75.10
73137;DHT22;67767;45.636;11.756;2023-08-17T03:36:16;25.70;75.30
73137;DHT22;67767;45.636;11.756;2023-08-17T03:38:42;25.80;75.30
73137;DHT22;67767;45.636;11.756;2023-08-17T03:41:09;25.80;75.20
73137;DHT22;67767;45.636;11.756;2023-08-17T03:43:34;25.70;75.30
73137;DHT22;67767;45.636;11.756;2023-08-17T03:46:01;25.80;75.20
73137;DHT22;67767;45.636;11.756;2023-08-17T03:48:27;25.80;75.30
73137;DHT22;67767;45.636;11.756;2023-08-17T03:50:56;25.70;75.20
73137;DHT22;67767;45.636;11.756;2023-08-17T03:53:21;25.70;75.40
73137;DHT22;67767;45.636;11.756;2023-08-17T03:55:48;25.70;75.50
73137;DHT22;67767;45.636;11.756;2023-08-17T03:58:14;25.80;75.40
73137;DHT22;67767;45.636;11.756;2023-08-17T04:00:40;25.70;75.60
73137;DHT22;67767;45.636;11.756;2023-08-17T04:03:06;25.60;75.80
73137;DHT22;67767;45.636;11.756;2023-08-17T04:05:32;25.60;75.80
73137;DHT22;67767;45.636;11.756;2023-08-17T04:07:58;25.60;75.70
73137;DHT22;67767;45.636;11.756;2023-08-17T04:10:28;25.70;75.40
73137;DHT22;67767;45.636;11.756;2023-08-17T04:12:53;25.70;75.40
73137;DHT22;67767;45.636;11.756;2023-08-17T04:15:19;25.60;75.70
73137;DHT22;67767;45.636;11.756;2023-08-17T04:17:45;25.60;75.50
73137;DHT22;67767;45.636;11.756;2023-08-17T04:20:10;25.50;75.70
73137;DHT22;67767;45.636;11.756;2023-08-17T04:22:36;25.50;75.60
73137;DHT22;67767;45.636;11.756;2023-08-17T04:25:02;25.50;75.70
73137;DHT22;67767;45.636;11.756;2023-08-17T04:27:28;25.50;75.80
73137;DHT22;67767;45.636;11.756;2023-08-17T04:29:53;25.50;75.70
73137;DHT22;67767;45.636;11.756;2023-08-17T04:32:19;25.50;75.60
73137;DHT22;67767;45.636;11.756;2023-08-17T04:34:45;25.50;75.50
73137;DHT22;67767;45.636;11.756;2023-08-17T04:37:11;25.60;75.50
73137;DHT22;67767;45.636;11.756;2023-08-17T04:39:37;25.50;75.40
73137;DHT22;67767;45.636;11.756;2023-08-17T04:42:03;25.50;75.30
73137;DHT22;67767;45.636;11.756;2023-08-17T04:44:29;25.40;75.50
73137;DHT22;67767;45.636;11.756;2023-08-17T04:46:55;25.40;75.70
73137;DHT22;67767;45.636;11.756;2023-08-17T04:49:20;25.40;75.60
73137;DHT22;67767;45.636;11.756;2023-08-17T04:51:46;25.50;75.30
73137;DHT22;67767;45.636;11.756;2023-08-17T04:54:12;25.50;75.30
73137;DHT22;67767;45.636;11.756;2023-08-17T04:56:38;25.50;75.20
73137;DHT22;67767;45.636;11.756;2023-08-17T04:59:04;25.60;75.10
73137;DHT22;67767;45.636;11.756;2023-08-17T05:01:29;25.60;75.10
73137;DHT22;67767;45.636;11.756;2023-08-17T05:03:55;25.80;75.00
73137;DHT22;67767;45.636;11.756;2023-08-17T05:06:21;25.60;75.00
73137;DHT22;67767;45.636;11.756;2023-08-17T05:08:46;25.70;74.90
73137;DHT22;67767;45.636;11.756;2023-08-17T05:11:12;25.70;74.70
73137;DHT22;67767;45.636;11.756;2023-08-17T05:13:38;25.90;74.70
73137;DHT22;67767;45.636;11.756;2023-08-17T05:16:04;26.00;74.40
73137;DHT22;67767;45.636;11.756;2023-08-17T05:18:30;26.10;73.80
73137;DHT22;67767;45.636;11.756;2023-08-17T05:20:56;26.00;74.10
73137;DHT22;67767;45.636;11.756;2023-08-17T05:23:22;26.10;73.90
73137;DHT22;67767;45.636;11.756;2023-08-17T05:25:47;26.10;73.90
73137;DHT22;67767;45.636;11.756;2023-08-17T05:28:13;26.10;73.80
73137;DHT22;67767;45.636;11.756;2023-08-17T05:30:39;26.30;73.60
73137;DHT22;67767;45.636;11.756;2023-08-17T05:33:05;26.30;73.60
73137;DHT22;67767;45.636;11.756;2023-08-17T05:35:31;26.30;73.70
73137;DHT22;67767;45.636;11.756;2023-08-17T05:37:57;26.20;73.70
73137;DHT22;67767;45.636;11.756;2023-08-17T05:40:22;26.40;73.50
73137;DHT22;67767;45.636;11.756;2023-08-17T05:42:48;26.60;73.30
73137;DHT22;67767;45.636;11.756;2023-08-17T05:45:14;26.80;73.40
73137;DHT22;67767;45.636;11.756;2023-08-17T05:47:39;26.90;73.90
73137;DHT22;67767;45.636;11.756;2023-08-17T05:50:06;26.90;73.70
73137;DHT22;67767;45.636;11.756;2023-08-17T05:52:31;27.10;73.50
73137;DHT22;67767;45.636;11.756;2023-08-17T05:54:57;27.10;73.40
73137;DHT22;67767;45.636;11.756;2023-08-17T05:57:23;27.20;72.90
73137;DHT22;67767;45.636;11.756;2023-08-17T05:59:49;27.30;72.80
73137;DHT22;67767;45.636;11.756;2023-08-17T06:02:14;27.40;72.60
73137;DHT22;67767;45.636;11.756;2023-08-17T06:04:40;27.40;72.90
73137;DHT22;67767;45.636;11.756;2023-08-17T06:07:06;27.50;72.80
73137;DHT22;67767;45.636;11.756;2023-08-17T06:09:32;27.70;71.80
73137;DHT22;67767;45.636;11.756;2023-08-17T06:11:58;27.60;71.60
73137;DHT22;67767;45.636;11.756;2023-08-17T06:14:23;27.50;72.30
73137;DHT22;67767;45.636;11.756;2023-08-17T06:16:49;27.50;71.80
73137;DHT22;67767;45.636;11.756;2023-08-17T06:19:14;27.60;71.50
73137;DHT22;67767;45.636;11.756;2023-08-17T06:21:40;27.70;72.30
73137;DHT22;67767;45.636;11.756;2023-08-17T06:24:06;27.70;72.50
73137;DHT22;67767;45.636;11.756;2023-08-17T06:26:32;27.50;72.40
73137;DHT22;67767;45.636;11.756;2023-08-17T06:28:57;27.70;71.30
73137;DHT22;67767;45.636;11.756;2023-08-17T06:31:23;27.70;71.70
73137;DHT22;67767;45.636;11.756;2023-08-17T06:33:53;27.70;71.30
73137;DHT22;67767;45.636;11.756;2023-08-17T06:36:19;27.70;71.70
73137;DHT22;67767;45.636;11.756;2023-08-17T06:38:44;27.80;71.50
73137;DHT22;67767;45.636;11.756;2023-08-17T06:41:10;27.80;69.60
73137;DHT22;67767;45.636;11.756;2023-08-17T06:43:36;28.20;69.30
73137;DHT22;67767;45.636;11.756;2023-08-17T06:46:01;28.30;68.90
73137;DHT22;67767;45.636;11.756;2023-08-17T06:48:28;28.30;68.90
73137;DHT22;67767;45.636;11.756;2023-08-17T06:50:53;28.30;68.90
73137;DHT22;67767;45.636;11.756;2023-08-17T06:53:19;28.30;69.80
73137;DHT22;67767;45.636;11.756;2023-08-17T06:55:45;28.60;69.40
73137;DHT22;67767;45.636;11.756;2023-08-17T06:58:10;28.60;68.90
73137;DHT22;67767;45.636;11.756;2023-08-17T07:00:36;28.70;68.80
73137;DHT22;67767;45.636;11.756;2023-08-17T07:03:04;28.90;68.50
73137;DHT22;67767;45.636;11.756;2023-08-17T07:05:30;29.10;67.00
73137;DHT22;67767;45.636;11.756;2023-08-17T07:07:55;29.30;66.70
73137;DHT22;67767;45.636;11.756;2023-08-17T07:10:23;29.20;66.10
73137;DHT22;67767;45.636;11.756;2023-08-17T07:12:48;29.10;67.30
73137;DHT22;67767;45.636;11.756;2023-08-17T07:15:14;29.10;67.80
73137;DHT22;67767;45.636;11.756;2023-08-17T07:17:40;29.20;66.10
73137;DHT22;67767;45.636;11.756;2023-08-17T07:20:06;29.20;65.20
73137;DHT22;67767;45.636;11.756;2023-08-17T07:22:36;29.30;64.60
73137;DHT22;67767;45.636;11.756;2023-08-17T07:25:02;29.30;64.80
73137;DHT22;67767;45.636;11.756;2023-08-17T07:27:29;29.40;64.00
73137;DHT22;67767;45.636;11.756;2023-08-17T07:29:55;29.30;64.50
73137;DHT22;67767;45.636;11.756;2023-08-17T07:32:21;29.60;64.00
73137;DHT22;67767;45.636;11.756;2023-08-17T07:34:47;29.90;63.40
73137;DHT22;67767;45.636;11.756;2023-08-17T07:37:13;30.00;61.00
73137;DHT22;67767;45.636;11.756;2023-08-17T07:39:39;30.30;60.00
73137;DHT22;67767;45.636;11.756;2023-08-17T07:42:04;30.50;60.80
73137;DHT22;67767;45.636;11.756;2023-08-17T07:44:30;30.50;60.80
73137;DHT22;67767;45.636;11.756;2023-08-17T07:47:00;30.30;60.80
73137;DHT22;67767;45.636;11.756;2023-08-17T07:49:27;30.70;60.20
73137;DHT22;67767;45.636;11.756;2023-08-17T07:51:53;31.00;59.70
73137;DHT22;67767;45.636;11.756;2023-08-17T07:54:19;31.10;59.00
73137;DHT22;67767;45.636;11.756;2023-08-17T07:56:44;31.40;59.20
73137;DHT22;67767;45.636;11.756;2023-08-17T07:59:10;31.40;58.80
73137;DHT22;67767;45.636;11.756;2023-08-17T08:01:35;31.20;59.10
73137;DHT22;67767;45.636;11.756;2023-08-17T08:04:02;31.30;58.40
73137;DHT22;67767;45.636;11.756;2023-08-17T08:06:27;31.40;59.40
73137;DHT22;67767;45.636;11.756;2023-08-17T08:08:53;31.50;58.50
73137;DHT22;67767;45.636;11.756;2023-08-17T08:11:21;31.50;58.40
73137;DHT22;67767;45.636;11.756;2023-08-17T08:13:47;31.50;58.70
73137;DHT22;67767;45.636;11.756;2023-08-17T08:16:13;31.40;58.00
73137;DHT22;67767;45.636;11.756;2023-08-17T08:18:38;31.50;59.30
73137;DHT22;67767;45.636;11.756;2023-08-17T08:21:04;31.50;58.00
73137;DHT22;67767;45.636;11.756;2023-08-17T08:23:30;31.30;58.90
73137;DHT22;67767;45.636;11.756;2023-08-17T08:25:55;31.50;59.20
73137;DHT22;67767;45.636;11.756;2023-08-17T08:28:21;31.10;58.80
73137;DHT22;67767;45.636;11.756;2023-08-17T08:30:47;31.50;58.40
73137;DHT22;67767;45.636;11.756;2023-08-17T08:33:12;31.50;57.00
73137;DHT22;67767;45.636;11.756;2023-08-17T08:35:38;31.50;57.00
73137;DHT22;67767;45.636;11.756;2023-08-17T08:38:04;31.70;57.20
73137;DHT22;67767;45.636;11.756;2023-08-17T08:40:30;31.90;56.30
73137;DHT22;67767;45.636;11.756;2023-08-17T08:42:58;32.00;55.90
73137;DHT22;67767;45.636;11.756;2023-08-17T08:45:25;32.10;55.70
73137;DHT22;67767;45.636;11.756;2023-08-17T08:47:53;32.10;55.20
73137;DHT22;67767;45.636;11.756;2023-08-17T08:50:20;32.20;55.00
73137;DHT22;67767;45.636;11.756;2023-08-17T08:53:01;32.00;54.40
73137;DHT22;67767;45.636;11.756;2023-08-17T08:55:37;32.10;55.40
73137;DHT22;67767;45.636;11.756;2023-08-17T08:58:04;32.30;55.70
73137;DHT22;67767;45.636;11.756;2023-08-17T09:00:31;32.20;54.60
73137;DHT22;67767;45.636;11.756;2023-08-17T09:02:59;32.10;55.10
73137;DHT22;67767;45.636;11.756;2023-08-17T09:05:25;32.20;56.60
73137;DHT22;67767;45.636;11.756;2023-08-17T09:07:52;32.30;55.70
73137;DHT22;67767;45.636;11.756;2023-08-17T09:10:18;32.30;54.80
73137;DHT22;67767;45.636;11.756;2023-08-17T09:12:46;32.40;55.40
73137;DHT22;67767;45.636;11.756;2023-08-17T09:15:12;32.50;54.90
73137;DHT22;67767;45.636;11.756;2023-08-17T09:17:37;32.60;54.80
73137;DHT22;67767;45.636;11.756;2023-08-17T09:20:04;32.70;53.90
73137;DHT22;67767;45.636;11.756;2023-08-17T09:22:42;32.70;54.20
73137;DHT22;67767;45.636;11.756;2023-08-17T09:25:10;32.70;54.50
73137;DHT22;67767;45.636;11.756;2023-08-17T09:27:39;32.80;53.70
73137;DHT22;67767;45.636;11.756;2023-08-17T09:30:09;32.90;53.90
73137;DHT22;67767;45.636;11.756;2023-08-17T09:32:35;32.30;54.70
73137;DHT22;67767;45.636;11.756;2023-08-17T09:35:05;32.60;54.80
73137;DHT22;67767;45.636;11.756;2023-08-17T09:37:34;33.00;55.70
73137;DHT22;67767;45.636;11.756;2023-08-17T09:40:00;32.80;54.70
73137;DHT22;67767;45.636;11.756;2023-08-17T09:42:26;32.70;54.70
73137;DHT22;67767;45.636;11.756;2023-08-17T09:44:53;32.60;55.00
73137;DHT22;67767;45.636;11.756;2023-08-17T09:47:21;32.60;54.60
73137;DHT22;67767;45.636;11.756;2023-08-17T09:49:52;32.70;54.40
73137;DHT22;67767;45.636;11.756;2023-08-17T09:52:22;32.50;53.90
73137;DHT22;67767;45.636;11.756;2023-08-17T09:54:49;32.90;53.90
73137;DHT22;67767;45.636;11.756;2023-08-17T09:57:17;33.10;52.30
73137;DHT22;67767;45.636;11.756;2023-08-17T09:59:43;33.10;53.50
73137;DHT22;67767;45.636;11.756;2023-08-17T10:02:19;33.10;52.70
73137;DHT22;67767;45.636;11.756;2023-08-17T10:04:52;33.40;52.30
73137;DHT22;67767;45.636;11.756;2023-08-17T10:07:24;32.70;52.90
73137;DHT22;67767;45.636;11.756;2023-08-17T10:10:06;33.10;53.20
73137;DHT22;67767;45.636;11.756;2023-08-17T10:12:36;33.10;52.50
73137;DHT22;67767;45.636;11.756;2023-08-17T10:15:06;33.20;52.10
73137;DHT22;67767;45.636;11.756;2023-08-17T10:17:42;33.60;52.10
73137;DHT22;67767;45.636;11.756;2023-08-17T10:20:09;33.70;51.20
73137;DHT22;67767;45.636;11.756;2023-08-17T10:25:49;33.30;51.30
73137;DHT22;67767;45.636;11.756;2023-08-17T10:28:16;33.70;51.00
73137;DHT22;67767;45.636;11.756;2023-08-17T10:30:43;33.60;51.80
73137;DHT22;67767;45.636;11.756;2023-08-17T10:33:09;33.80;50.70
73137;DHT22;67767;45.636;11.756;2023-08-17T10:35:37;33.50;50.10
73137;DHT22;67767;45.636;11.756;2023-08-17T10:38:03;34.00;49.70
73137;DHT22;67767;45.636;11.756;2023-08-17T10:40:35;33.90;50.30
73137;DHT22;67767;45.636;11.756;2023-08-17T10:43:01;33.90;51.40
73137;DHT22;67767;45.636;11.756;2023-08-17T10:45:30;33.60;51.60
73137;DHT22;67767;45.636;11.756;2023-08-17T10:50:59;33.90;51.60
73137;DHT22;67767;45.636;11.756;2023-08-17T10:53:25;34.00;50.30
73137;DHT22;67767;45.636;11.756;2023-08-17T10:55:57;34.20;51.10
73137;DHT22;67767;45.636;11.756;2023-08-17T10:58:23;34.50;50.20
73137;DHT22;67767;45.636;11.756;2023-08-17T11:00:54;34.40;49.80
73137;DHT22;67767;45.636;11.756;2023-08-17T11:03:22;33.70;51.10
73137;DHT22;67767;45.636;11.756;2023-08-17T11:05:52;34.00;49.80
73137;DHT22;67767;45.636;11.756;2023-08-17T11:11:11;33.30;51.50
73137;DHT22;67767;45.636;11.756;2023-08-17T11:13:42;33.80;50.20
73137;DHT22;67767;45.636;11.756;2023-08-17T11:16:09;34.10;49.90
73137;DHT22;67767;45.636;11.756;2023-08-17T11:18:36;34.20;50.40
73137;DHT22;67767;45.636;11.756;2023-08-17T11:21:03;34.60;48.60
73137;DHT22;67767;45.636;11.756;2023-08-17T11:23:30;34.70;48.90
73137;DHT22;67767;45.636;11.756;2023-08-17T11:25:56;34.70;48.10
73137;DHT22;67767;45.636;11.756;2023-08-17T11:28:25;34.80;48.20
73137;DHT22;67767;45.636;11.756;2023-08-17T11:31:16;34.80;47.10
73137;DHT22;67767;45.636;11.756;2023-08-17T11:33:42;35.20;47.50
73137;DHT22;67767;45.636;11.756;2023-08-17T11:36:08;35.60;46.40
73137;DHT22;67767;45.636;11.756;2023-08-17T11:38:44;35.50;46.60
73137;DHT22;67767;45.636;11.756;2023-08-17T11:41:10;35.60;45.70
73137;DHT22;67767;45.636;11.756;2023-08-17T11:43:36;35.00;47.60
73137;DHT22;67767;45.636;11.756;2023-08-17T11:46:02;35.50;46.60
73137;DHT22;67767;45.636;11.756;2023-08-17T11:48:29;35.00;46.90
73137;DHT22;67767;45.636;11.756;2023-08-17T11:50:54;35.30;46.90
73137;DHT22;67767;45.636;11.756;2023-08-17T11:53:21;35.30;46.40
73137;DHT22;67767;45.636;11.756;2023-08-17T11:55:46;36.50;45.60
73137;DHT22;67767;45.636;11.756;2023-08-17T11:58:12;35.80;45.20
73137;DHT22;67767;45.636;11.756;2023-08-17T12:00:43;36.40;45.30
73137;DHT22;67767;45.636;11.756;2023-08-17T12:03:15;37.20;44.70
73137;DHT22;67767;45.636;11.756;2023-08-17T12:05:41;37.20;43.80
73137;DHT22;67767;45.636;11.756;2023-08-17T12:08:07;37.50;42.80
73137;DHT22;67767;45.636;11.756;2023-08-17T12:10:33;38.00;41.80
73137;DHT22;67767;45.636;11.756;2023-08-17T12:12:59;38.40;40.60
73137;DHT22;67767;45.636;11.756;2023-08-17T12:15:33;38.70;39.20
73137;DHT22;67767;45.636;11.756;2023-08-17T12:18:02;39.10;39.50
73137;DHT22;67767;45.636;11.756;2023-08-17T12:20:28;39.00;38.90
73137;DHT22;67767;45.636;11.756;2023-08-17T12:22:57;39.10;39.10
73137;DHT22;67767;45.636;11.756;2023-08-17T12:25:24;39.60;38.40
73137;DHT22;67767;45.636;11.756;2023-08-17T12:27:50;39.90;39.00
73137;DHT22;67767;45.636;11.756;2023-08-17T12:30:29;39.70;38.80
73137;DHT22;67767;45.636;11.756;2023-08-17T12:32:57;39.70;38.40
73137;DHT22;67767;45.636;11.756;2023-08-17T12:35:22;39.50;38.80
73137;DHT22;67767;45.636;11.756;2023-08-17T12:37:51;39.80;39.30
73137;DHT22;67767;45.636;11.756;2023-08-17T12:40:16;39.80;37.80
73137;DHT22;67767;45.636;11.756;2023-08-17T12:42:42;39.90;39.10
73137;DHT22;67767;45.636;11.756;2023-08-17T12:45:08;40.10;36.80
73137;DHT22;67767;45.636;11.756;2023-08-17T12:47:34;40.60;36.80
73137;DHT22;67767;45.636;11.756;2023-08-17T12:49:59;40.40;35.90
73137;DHT22;67767;45.636;11.756;2023-08-17T12:52:27;40.90;36.50
73137;DHT22;67767;45.636;11.756;2023-08-17T12:54:53;39.90;38.20
73137;DHT22;67767;45.636;11.756;2023-08-17T12:57:18;39.20;39.80
73137;DHT22;67767;45.636;11.756;2023-08-17T12:59:44;38.60;40.50
73137;DHT22;67767;45.636;11.756;2023-08-17T13:02:10;39.30;40.10
73137;DHT22;67767;45.636;11.756;2023-08-17T13:04:35;38.50;39.60
73137;DHT22;67767;45.636;11.756;2023-08-17T13:07:02;39.40;38.70
73137;DHT22;67767;45.636;11.756;2023-08-17T13:09:27;38.40;39.40
73137;DHT22;67767;45.636;11.756;2023-08-17T13:11:53;37.90;40.40
73137;DHT22;67767;45.636;11.756;2023-08-17T13:14:18;38.40;39.70
73137;DHT22;67767;45.636;11.756;2023-08-17T13:16:44;39.70;38.40
73137;DHT22;67767;45.636;11.756;2023-08-17T13:19:10;39.80;37.40
73137;DHT22;67767;45.636;11.756;2023-08-17T13:21:35;39.90;38.00
73137;DHT22;67767;45.636;11.756;2023-08-17T13:24:01;40.50;36.40
73137;DHT22;67767;45.636;11.756;2023-08-17T13:26:28;40.80;36.60
73137;DHT22;67767;45.636;11.756;2023-08-17T13:28:54;40.30;36.20
73137;DHT22;67767;45.636;11.756;2023-08-17T13:31:20;40.20;37.20
73137;DHT22;67767;45.636;11.756;2023-08-17T13:33:45;39.50;38.00
73137;DHT22;67767;45.636;11.756;2023-08-17T13:36:11;40.60;36.00
73137;DHT22;67767;45.636;11.756;2023-08-17T13:38:37;41.30;34.30
73137;DHT22;67767;45.636;11.756;2023-08-17T13:41:04;40.10;36.20
73137;DHT22;67767;45.636;11.756;2023-08-17T13:43:29;40.40;36.50
73137;DHT22;67767;45.636;11.756;2023-08-17T13:45:55;41.10;35.50
73137;DHT22;67767;45.636;11.756;2023-08-17T13:48:21;41.00;33.90
73137;DHT22;67767;45.636;11.756;2023-08-17T13:50:47;40.90;34.20
73137;DHT22;67767;45.636;11.756;2023-08-17T13:53:13;41.50;33.30
73137;DHT22;67767;45.636;11.756;2023-08-17T13:55:38;41.80;33.80
73137;DHT22;67767;45.636;11.756;2023-08-17T13:58:04;42.10;33.60
73137;DHT22;67767;45.636;11.756;2023-08-17T14:00:30;41.40;33.90
73137;DHT22;67767;45.636;11.756;2023-08-17T14:02:56;41.50;33.80
73137;DHT22;67767;45.636;11.756;2023-08-17T14:05:21;41.60;33.90
73137;DHT22;67767;45.636;11.756;2023-08-17T14:07:48;41.60;33.60
73137;DHT22;67767;45.636;11.756;2023-08-17T14:10:14;41.40;34.00
73137;DHT22;67767;45.636;11.756;2023-08-17T14:12:39;41.10;34.00
73137;DHT22;67767;45.636;11.756;2023-08-17T14:15:05;41.70;33.50
73137;DHT22;67767;45.636;11.756;2023-08-17T14:17:31;40.20;36.30
73137;DHT22;67767;45.636;11.756;2023-08-17T14:19:57;40.20;35.80
73137;DHT22;67767;45.636;11.756;2023-08-17T14:22:23;38.90;37.70
73137;DHT22;67767;45.636;11.756;2023-08-17T14:24:48;38.60;38.60
73137;DHT22;67767;45.636;11.756;2023-08-17T14:27:14;38.80;38.60
73137;DHT22;67767;45.636;11.756;2023-08-17T14:29:39;39.50;38.40
73137;DHT22;67767;45.636;11.756;2023-08-17T14:32:06;40.10;36.40
73137;DHT22;67767;45.636;11.756;2023-08-17T14:34:31;39.60;37.40
73137;DHT22;67767;45.636;11.756;2023-08-17T14:36:57;39.00;37.90
73137;DHT22;67767;45.636;11.756;2023-08-17T14:39:22;39.50;37.50
73137;DHT22;67767;45.636;11.756;2023-08-17T14:41:48;39.10;38.10
73137;DHT22;67767;45.636;11.756;2023-08-17T14:44:14;38.80;39.00
73137;DHT22;67767;45.636;11.756;2023-08-17T14:46:39;38.20;39.90
73137;DHT22;67767;45.636;11.756;2023-08-17T14:49:07;38.10;40.40
73137;DHT22;67767;45.636;11.756;2023-08-17T14:51:37;37.90;40.00
73137;DHT22;67767;45.636;11.756;2023-08-17T14:54:04;38.70;38.60
73137;DHT22;67767;45.636;11.756;2023-08-17T14:56:30;39.50;38.30
73137;DHT22;67767;45.636;11.756;2023-08-17T14:58:56;38.50;39.70
73137;DHT22;67767;45.636;11.756;2023-08-17T15:01:22;38.10;40.00
73137;DHT22;67767;45.636;11.756;2023-08-17T15:03:47;37.60;40.90
73137;DHT22;67767;45.636;11.756;2023-08-17T15:06:13;37.00;42.90
73137;DHT22;67767;45.636;11.756;2023-08-17T15:08:39;37.00;43.00
73137;DHT22;67767;45.636;11.756;2023-08-17T15:11:05;37.00;42.80
73137;DHT22;67767;45.636;11.756;2023-08-17T15:13:30;37.10;42.20
73137;DHT22;67767;45.636;11.756;2023-08-17T15:15:56;36.60;43.30
73137;DHT22;67767;45.636;11.756;2023-08-17T15:18:22;36.90;42.90
73137;DHT22;67767;45.636;11.756;2023-08-17T15:20:48;37.00;42.70
73137;DHT22;67767;45.636;11.756;2023-08-17T15:23:13;37.20;42.40